Meraux, Louisiana
Current Conditions -  °F | °C
As of 6:55 PM on Sunday 21 Dec 2014 (Local Time) from KNBG Reporting Station
Overcast Overcast  
Wind Chill: 55°   Ceiling: 800
Heat Index: 55°   Visibility: 8mi
Dew Point: 53°   Wind: 8mph
Humidity: 93%   Direction: 80°E
Pressure: 29.98"   Gusts: NA
Location:  29.92°N, 89.91°W
Report Text: KNBG 220055Z AUTO 08007KT 8SM OVC008 13/12 A2998 RMK AO2 SLP150 T01280117 $
Loading
Personal Weather Stations






























Interactive Weather Map New forecast layout! Learn more

10-Day Weather Forecast

Advertisements
Track Severe Weather on mobile